Time;durP1;ratioP1;P1;durP2;ratioP2;P2;SDS_P1;SDS_P2;PMS_P1;PMS_P2;Temp;Humidity;BMP_temperature;BMP_pressure;BME280_temperature;BME280_humidity;BME280_pressure;Samples;Min_cycle;Max_cycle;Signal;HPM_P1;HPM_P2
2021/10/30 00:03:11;;;;;;;15.88;12.05;;;;;;;11.05;100.00;100537.25;10623953;28;20051;-59
2021/10/30 00:08:13;;;;;;;26.55;13.65;;;;;;;11.06;100.00;100528.44;10623979;28;20122;-61
2021/10/30 00:13:16;;;;;;;35.78;18.30;;;;;;;10.92;100.00;100537.19;10624110;28;20051;-61
2021/10/30 00:18:18;;;;;;;22.23;14.73;;;;;;;10.82;100.00;100534.28;10625183;27;20047;-59
2021/10/30 00:23:21;;;;;;;17.52;13.32;;;;;;;10.82;100.00;100533.47;10632068;27;20409;-60
2021/10/30 00:28:23;;;;;;;14.77;12.23;;;;;;;10.96;100.00;100521.19;10631946;27;20395;-60
2021/10/30 00:33:25;;;;;;;24.30;14.60;;;;;;;10.80;100.00;100520.47;10631444;27;20420;-60
2021/10/30 00:38:28;;;;;;;18.95;13.27;;;;;;;10.80;100.00;100514.38;10631529;27;20478;-60
2021/10/30 00:43:31;;;;;;;20.98;14.68;;;;;;;10.69;100.00;100500.19;10631401;27;20051;-58
2021/10/30 00:48:33;;;;;;;20.65;13.80;;;;;;;10.75;100.00;100494.56;10631482;27;20114;-61
2021/10/30 00:53:36;;;;;;;21.90;14.73;;;;;;;10.71;100.00;100480.00;10630707;27;20499;-59
2021/10/30 00:58:39;;;;;;;25.40;16.95;;;;;;;10.74;100.00;100484.19;10613325;27;20051;-60
2021/10/30 01:03:41;;;;;;;19.25;13.32;;;;;;;10.76;100.00;100487.56;10612437;27;20524;-61
2021/10/30 01:08:44;;;;;;;17.15;11.93;;;;;;;10.60;100.00;100483.25;10612265;27;20513;-61
2021/10/30 01:13:47;;;;;;;23.92;15.90;;;;;;;10.32;100.00;100472.81;10595053;27;20372;-61
2021/10/30 01:18:49;;;;;;;16.27;13.50;;;;;;;10.44;100.00;100490.41;10630143;27;20039;-61
2021/10/30 01:23:53;;;;;;;19.17;13.65;;;;;;;10.31;100.00;100494.69;10629676;27;20049;-60
2021/10/30 01:28:56;;;;;;;17.38;11.93;;;;;;;10.45;100.00;100473.75;10629512;27;20051;-61
2021/10/30 01:34:06;;;;;;;13.95;11.45;;;;;;;10.31;100.00;100477.19;10628604;27;20051;-60
2021/10/30 01:39:09;;;;;;;16.75;11.88;;;;;;;10.41;100.00;100452.16;10629360;27;20051;-60
2021/10/30 01:44:12;;;;;;;15.95;11.38;;;;;;;10.46;100.00;100458.91;10629012;27;20402;-59
2021/10/30 01:49:14;;;;;;;16.10;12.73;;;;;;;10.19;100.00;100457.84;10628917;27;20043;-59
2021/10/30 01:54:16;;;;;;;18.58;14.13;;;;;;;10.19;100.00;100451.78;10628590;27;20039;-61
2021/10/30 01:59:19;;;;;;;12.85;11.25;;;;;;;10.14;100.00;100457.28;10610760;27;20055;-59
2021/10/30 02:04:21;;;;;;;21.00;14.30;;;;;;;10.11;100.00;100439.16;10628297;27;20043;-59
2021/10/30 02:09:23;;;;;;;20.42;13.63;;;;;;;10.24;100.00;100436.66;10610313;27;20058;-60
2021/10/30 02:14:25;;;;;;;33.08;18.20;;;;;;;10.09;100.00;100422.72;10627726;27;20047;-60
2021/10/30 02:19:28;;;;;;;19.45;13.77;;;;;;;10.21;100.00;100426.38;10627513;27;20051;-59
2021/10/30 02:24:32;;;;;;;16.05;12.70;;;;;;;10.18;100.00;100410.84;10627294;27;20050;-60
2021/10/30 02:29:34;;;;;;;27.35;16.10;;;;;;;10.18;100.00;100396.00;10627061;27;20509;-59
2021/10/30 02:34:37;;;;;;;19.77;13.32;;;;;;;10.26;100.00;100399.94;10627690;27;20039;-60
2021/10/30 02:39:39;;;;;;;25.75;15.32;;;;;;;10.38;100.00;100375.63;10626569;27;20046;-61
2021/10/30 02:44:41;;;;;;;17.00;12.80;;;;;;;10.59;100.00;100378.63;10626670;27;20371;-61
2021/10/30 02:49:44;;;;;;;19.10;12.43;;;;;;;10.69;100.00;100369.28;10626599;27;20054;-60
2021/10/30 02:54:46;;;;;;;21.27;11.65;;;;;;;10.87;100.00;100356.75;10626263;27;20123;-59
2021/10/30 02:59:50;;;;;;;17.13;14.18;;;;;;;10.94;100.00;100350.19;10626382;27;20054;-61
2021/10/30 03:04:53;;;;;;;12.02;10.73;;;;;;;10.99;100.00;100351.66;10626069;27;20046;-59
2021/10/30 03:09:55;;;;;;;14.02;12.02;;;;;;;11.08;100.00;100340.59;10626247;27;20050;-59
2021/10/30 03:14:57;;;;;;;14.15;10.98;;;;;;;11.09;100.00;100331.75;10625688;27;20047;-59
2021/10/30 03:20:00;;;;;;;15.48;11.93;;;;;;;11.00;100.00;100333.22;10624987;27;20479;-60
2021/10/30 03:25:02;;;;;;;13.60;9.95;;;;;;;11.02;100.00;100313.00;10625214;27;20055;-59
2021/10/30 03:30:06;;;;;;;15.55;12.57;;;;;;;10.79;100.00;100304.03;10624921;27;20051;-61
2021/10/30 03:35:09;;;;;;;18.40;12.27;;;;;;;10.91;100.00;100318.09;10624697;27;20414;-60
2021/10/30 03:40:12;;;;;;;20.50;13.13;;;;;;;10.94;100.00;100302.19;10606281;27;20061;-61
2021/10/30 03:45:14;;;;;;;20.30;14.00;;;;;;;10.89;100.00;100306.88;10606160;27;20407;-61
2021/10/30 03:50:17;;;;;;;24.08;14.55;;;;;;;10.78;100.00;100303.22;10624090;27;20043;-60
2021/10/30 03:55:19;;;;;;;21.63;15.43;;;;;;;10.65;100.00;100291.88;10632816;27;20490;-61
2021/10/30 04:00:21;;;;;;;20.58;13.43;;;;;;;10.64;100.00;100299.81;10638261;27;20400;-61
2021/10/30 04:05:24;;;;;;;21.77;14.60;;;;;;;10.77;100.00;100274.50;10638565;27;20047;-60
2021/10/30 04:10:26;;;;;;;26.80;14.35;;;;;;;10.86;100.00;100270.44;10639019;27;20047;-59
2021/10/30 04:15:28;;;;;;;22.98;14.95;;;;;;;10.81;100.00;100278.63;10638332;27;20062;-60
2021/10/30 04:20:31;;;;;;;21.75;15.25;;;;;;;10.66;100.00;100293.56;10638103;27;20039;-60
2021/10/30 04:25:33;;;;;;;22.05;14.50;;;;;;;10.67;100.00;100287.34;10637973;27;20492;-61
2021/10/30 04:30:35;;;;;;;21.52;15.07;;;;;;;10.67;100.00;100279.50;10637808;27;20046;-60
2021/10/30 04:35:40;;;;;;;24.13;14.95;;;;;;;10.79;100.00;100275.22;10637408;27;20047;-61
2021/10/30 04:40:43;;;;;;;24.67;14.48;;;;;;;10.59;100.00;100269.56;10637603;27;20050;-61
2021/10/30 04:45:45;;;;;;;20.45;13.80;;;;;;;10.74;100.00;100259.84;10637593;27;20128;-59
2021/10/30 04:50:48;;;;;;;20.77;15.38;;;;;;;10.56;100.00;100259.28;10637462;27;20043;-60
2021/10/30 04:55:50;;;;;;;19.92;13.18;;;;;;;10.67;100.00;100261.19;10619402;27;20051;-59
2021/10/30 05:00:52;;;;;;;31.30;15.88;;;;;;;10.49;100.00;100259.78;10637766;27;20074;-60
2021/10/30 05:05:55;;;;;;;16.25;12.27;;;;;;;10.63;100.00;100254.47;10633019;27;20449;-59
2021/10/30 05:10:57;;;;;;;22.90;13.95;;;;;;;10.45;100.00;100250.47;10630199;27;20043;-60
2021/10/30 05:16:01;;;;;;;20.10;12.60;;;;;;;10.52;100.00;100252.59;10630334;27;20127;-60
2021/10/30 05:21:03;;;;;;;22.25;13.27;;;;;;;10.35;100.00;100237.97;10629767;27;20104;-61
2021/10/30 05:26:07;;;;;;;16.65;12.10;;;;;;;10.41;100.00;100228.88;10630175;27;20050;-60
2021/10/30 05:31:09;;;;;;;20.42;12.18;;;;;;;10.57;100.00;100221.72;10611339;27;20054;-59
2021/10/30 05:36:12;;;;;;;18.70;14.10;;;;;;;10.40;100.00;100211.50;10629429;27;20126;-59
2021/10/30 05:41:17;;;;;;;19.90;12.23;;;;;;;10.40;100.00;100206.25;10628967;27;20043;-62
2021/10/30 05:46:21;;;;;;;18.30;12.48;;;;;;;10.40;100.00;100203.66;10628855;27;20074;-60
2021/10/30 05:51:23;;;;;;;22.13;14.35;;;;;;;10.44;100.00;100185.97;10628827;27;20082;-60
2021/10/30 05:56:26;;;;;;;18.58;12.98;;;;;;;10.36;100.00;100165.56;10628936;27;20043;-60
2021/10/30 06:01:28;;;;;;;22.50;14.40;;;;;;;10.50;100.00;100156.78;10628667;27;20043;-61
2021/10/30 06:06:35;;;;;;;21.85;13.48;;;;;;;10.50;100.00;100146.31;10628241;27;20050;-61
2021/10/30 06:11:37;;;;;;;20.63;14.02;;;;;;;10.35;100.00;100177.78;10628456;27;20043;-60
2021/10/30 06:16:40;;;;;;;23.83;14.73;;;;;;;10.36;100.00;100173.41;10627433;27;20131;-62
2021/10/30 06:21:43;;;;;;;19.00;12.65;;;;;;;10.44;100.00;100168.50;10627371;27;20050;-61
2021/10/30 06:26:45;;;;;;;20.85;14.80;;;;;;;10.43;100.00;100177.28;10627547;27;20043;-60
2021/10/30 06:31:47;;;;;;;20.20;15.35;;;;;;;10.57;100.00;100173.72;10627026;27;20049;-61
2021/10/30 06:36:50;;;;;;;42.28;19.98;;;;;;;10.44;100.00;100172.88;10626832;27;20043;-62
2021/10/30 06:41:52;;;;;;;21.52;13.88;;;;;;;10.57;100.00;100176.34;10626231;27;20506;-61
2021/10/30 06:46:54;;;;;;;31.17;17.40;;;;;;;10.55;100.00;100179.06;10626159;27;20047;-60
2021/10/30 06:51:57;;;;;;;36.10;19.58;;;;;;;10.50;100.00;100167.25;10626318;27;20054;-61
2021/10/30 06:56:59;;;;;;;31.80;19.02;;;;;;;10.51;100.00;100155.84;10626820;27;20065;-61
2021/10/30 07:02:03;;;;;;;25.65;17.65;;;;;;;10.48;100.00;100159.50;10626219;27;20043;-60
2021/10/30 07:07:05;;;;;;;29.02;18.52;;;;;;;10.66;100.00;100159.19;10607401;27;20107;-60
2021/10/30 07:12:08;;;;;;;25.55;17.65;;;;;;;10.58;100.00;100142.22;10625392;27;20043;-59
2021/10/30 07:17:22;;;;;;;26.15;18.02;;;;;;;10.54;100.00;100146.00;10625397;27;20055;-61
2021/10/30 07:22:25;;;;;;;29.50;18.85;;;;;;;10.52;100.00;100145.28;10625504;27;20043;-61
2021/10/30 07:27:27;;;;;;;24.50;15.63;;;;;;;10.66;100.00;100149.56;10624687;27;20058;-60
2021/10/30 07:32:30;;;;;;;25.30;17.33;;;;;;;10.59;100.00;100136.06;10624651;27;20051;-60
2021/10/30 07:37:33;;;;;;;20.50;15.20;;;;;;;10.65;100.00;100140.03;10624650;27;20047;-61
2021/10/30 07:42:35;;;;;;;24.02;17.05;;;;;;;10.63;100.00;100134.06;10624429;27;20058;-60
2021/10/30 07:47:38;;;;;;;22.63;16.05;;;;;;;10.77;100.00;100115.59;10606177;27;20051;-61
2021/10/30 07:52:41;;;;;;;16.00;12.55;;;;;;;10.67;100.00;100127.66;10605956;28;20487;-60
2021/10/30 07:57:43;;;;;;;23.25;16.38;;;;;;;10.71;100.00;100131.75;10624162;28;20479;-60
2021/10/30 08:02:45;;;;;;;17.38;13.00;;;;;;;10.84;100.00;100126.50;10624348;28;20039;-59
2021/10/30 08:07:48;;;;;;;20.00;13.60;;;;;;;10.83;100.00;100111.75;10624048;28;20055;-61
2021/10/30 08:12:50;;;;;;;15.32;11.93;;;;;;;10.82;100.00;100114.47;10623792;28;20043;-61
2021/10/30 08:17:54;;;;;;;16.35;12.88;;;;;;;10.89;100.00;100107.84;10623944;28;20043;-61
2021/10/30 08:22:56;;;;;;;14.70;12.80;;;;;;;10.87;100.00;100109.75;10623525;28;20046;-60
2021/10/30 08:27:58;;;;;;;18.17;11.82;;;;;;;10.91;100.00;100111.19;10623912;28;20047;-60
2021/10/30 08:33:00;;;;;;;14.77;10.52;;;;;;;11.07;100.00;100101.31;10623698;28;20061;-60
2021/10/30 08:38:07;;;;;;;15.10;11.20;;;;;;;11.00;100.00;100092.22;10623306;28;20048;-60
2021/10/30 08:43:16;;;;;;;19.20;10.65;;;;;;;11.06;100.00;100091.81;10631302;27;20043;-61
2021/10/30 08:48:27;;;;;;;14.73;9.00;;;;;;;11.21;100.00;100078.56;10613420;27;20054;-60
2021/10/30 08:53:29;;;;;;;11.35;8.77;;;;;;;11.16;100.00;100078.88;10612909;27;20050;-61
2021/10/30 08:58:32;;;;;;;18.95;11.25;;;;;;;11.15;100.00;100078.03;10630941;27;20047;-59
2021/10/30 09:03:36;;;;;;;12.38;9.88;;;;;;;11.27;100.00;100065.84;10630509;27;20084;-59
2021/10/30 09:08:38;;;;;;;12.20;9.45;;;;;;;11.56;100.00;100078.63;10630624;27;20058;-59
2021/10/30 09:13:41;;;;;;;13.40;10.27;;;;;;;11.56;100.00;100075.16;10630419;27;20082;-61
2021/10/30 09:18:43;;;;;;;10.27;7.65;;;;;;;11.51;100.00;100071.09;10630296;27;20047;-61
2021/10/30 09:23:50;;;;;;;9.90;7.63;;;;;;;11.51;100.00;100071.09;10629940;27;20414;-61
2021/10/30 09:29:02;;;;;;;12.38;7.85;;;;;;;11.52;100.00;100083.25;10630057;27;20055;-60
2021/10/30 09:34:05;;;;;;;;;;;;;;;11.65;100.00;100075.34;10630164;27;20070;-58
2021/10/30 09:39:09;;;;;;;15.10;8.43;;;;;;;11.78;100.00;100069.19;10629300;27;19919;-59
2021/10/30 09:44:18;;;;;;;15.20;10.13;;;;;;;11.81;100.00;100061.91;10629607;27;20051;-61
2021/10/30 09:49:21;;;;;;;16.25;8.65;;;;;;;11.83;100.00;100075.75;10611072;27;20047;-59
2021/10/30 09:54:34;;;;;;;13.38;7.88;;;;;;;11.93;100.00;100068.06;10628732;27;20053;-60
2021/10/30 09:59:39;;;;;;;9.95;8.27;;;;;;;11.65;100.00;100072.72;10628377;27;20070;-60
2021/10/30 10:04:42;;;;;;;10.63;7.25;;;;;;;11.90;100.00;100068.25;10628635;27;20043;-59
2021/10/30 10:09:45;;;;;;;12.48;7.85;;;;;;;11.91;100.00;100059.47;10627996;27;20059;-61
2021/10/30 10:14:48;;;;;;;11.50;9.38;;;;;;;11.79;100.00;100058.59;10609865;27;20054;-59
2021/10/30 10:19:50;;;;;;;12.63;8.05;;;;;;;11.94;100.00;100054.00;10609353;27;20402;-59
2021/10/30 10:24:53;;;;;;;11.23;8.00;;;;;;;11.97;100.00;100045.91;10627504;27;20047;-61
2021/10/30 10:29:56;;;;;;;14.45;8.43;;;;;;;11.94;100.00;100038.28;10609366;27;20055;-60
2021/10/30 10:35:04;;;;;;;7.63;6.60;;;;;;;12.01;100.00;100051.78;10627261;27;20047;-60
2021/10/30 10:40:28;;;;;;;16.23;9.20;;;;;;;11.89;100.00;100030.72;10627258;27;20043;-60
2021/10/30 10:45:50;;;;;;;11.60;8.38;;;;;;;11.95;100.00;100026.81;10626240;27;20059;-59
2021/10/30 10:50:53;;;;;;;14.15;8.27;;;;;;;12.03;100.00;100015.75;10626397;27;20047;-61
2021/10/30 10:56:00;;;;;;;8.68;7.78;;;;;;;12.07;100.00;100017.22;10626362;27;20047;-60
2021/10/30 11:01:04;;;;;;;13.15;8.45;;;;;;;12.17;100.00;100010.31;10625858;27;20460;-61
2021/10/30 11:06:07;;;;;;;13.02;8.93;;;;;;;12.15;100.00;100017.44;10624971;27;20051;-60
2021/10/30 11:11:24;;;;;;;8.57;5.65;;;;;;;12.11;100.00;100013.38;10625600;27;20050;-62
2021/10/30 11:16:30;;;;;;;8.40;6.78;;;;;;;12.13;100.00;99992.28;10625571;27;20043;-60
2021/10/30 11:21:36;;;;;;;8.90;6.78;;;;;;;12.23;100.00;99990.63;10607690;27;20139;-60
2021/10/30 11:26:39;;;;;;;9.52;7.57;;;;;;;12.32;100.00;99992.50;10625191;27;20394;-62
2021/10/30 11:31:42;;;;;;;7.70;5.38;;;;;;;12.35;100.00;99973.06;10624717;27;20054;-61
2021/10/30 11:36:45;;;;;;;10.63;6.65;;;;;;;12.44;100.00;99982.88;10606693;27;20058;-59
2021/10/30 11:41:47;;;;;;;7.30;5.85;;;;;;;12.70;100.00;99979.97;10624440;27;20065;-60
2021/10/30 11:46:55;;;;;;;8.75;6.85;;;;;;;12.71;100.00;99966.72;10625160;27;20065;-60
2021/10/30 11:52:09;;;;;;;9.30;5.60;;;;;;;12.91;100.00;99966.91;10624404;27;20100;-59
2021/10/30 11:57:12;;;;;;;6.18;5.30;;;;;;;12.91;100.00;99961.66;10624212;28;20120;-61
2021/10/30 12:02:16;;;;;;;6.55;5.43;;;;;;;12.86;100.00;99961.19;10624018;28;20475;-60
2021/10/30 12:07:18;;;;;;;7.30;5.10;;;;;;;12.90;100.00;99957.38;10606428;28;20050;-60
2021/10/30 12:12:23;;;;;;;10.07;6.68;;;;;;;12.88;100.00;99948.75;10605618;28;20047;-64
2021/10/30 12:17:28;;;;;;;11.52;5.20;;;;;;;12.95;100.00;99944.69;10612481;27;20049;-60
2021/10/30 12:22:37;;;;;;;6.88;5.43;;;;;;;13.02;100.00;99933.56;10632212;27;20490;-61
2021/10/30 12:27:56;;;;;;;7.35;6.28;;;;;;;13.06;100.00;99926.25;10632306;27;20047;-61
2021/10/30 12:33:13;;;;;;;8.20;5.15;;;;;;;13.26;100.00;99921.97;10632129;27;20403;-61
2021/10/30 12:38:21;;;;;;;7.57;4.07;;;;;;;13.26;100.00;99913.28;10631777;27;20505;-61
2021/10/30 12:43:31;;;;;;;6.28;4.35;;;;;;;13.44;100.00;99901.25;10631661;27;20466;-62
2021/10/30 12:48:38;;;;;;;4.95;4.13;;;;;;;13.86;100.00;99888.06;10631563;27;20051;-62
2021/10/30 12:53:41;;;;;;;4.95;4.18;;;;;;;13.67;100.00;99883.56;10631144;27;20047;-62
2021/10/30 12:58:53;;;;;;;4.60;4.10;;;;;;;13.59;100.00;99875.47;10631022;27;20388;-62
2021/10/30 13:04:06;;;;;;;4.68;3.88;;;;;;;13.67;100.00;99865.13;10631277;27;20050;-62
2021/10/30 13:09:20;;;;;;;6.45;4.03;;;;;;;13.72;100.00;99867.38;10630616;27;20051;-62
2021/10/30 13:14:23;;;;;;;5.93;3.80;;;;;;;13.41;100.00;99872.59;10630526;27;20065;-61
2021/10/30 13:19:26;;;;;;;4.35;3.92;;;;;;;13.43;100.00;99861.94;10629943;27;20039;-62
2021/10/30 13:24:28;;;;;;;9.00;3.85;;;;;;;13.65;100.00;99864.44;10629929;27;20050;-62
2021/10/30 13:29:30;;;;;;;9.77;4.20;;;;;;;13.62;100.00;99866.50;10628573;27;20062;-61
2021/10/30 13:34:33;;;;;;;3.30;2.85;;;;;;;13.51;100.00;99873.47;10629678;27;20497;-61
2021/10/30 13:39:35;;;;;;;6.50;3.63;;;;;;;13.31;100.00;99884.81;10629427;27;20046;-62
2021/10/30 13:44:38;;;;;;;6.43;3.45;;;;;;;13.57;100.00;99878.22;10629153;27;20051;-62
2021/10/30 13:49:40;;;;;;;3.83;3.40;;;;;;;13.55;100.00;99871.44;10628738;27;20494;-62
2021/10/30 13:54:42;;;;;;;6.60;3.63;;;;;;;13.54;100.00;99873.22;10628748;27;20110;-61
2021/10/30 13:59:45;;;;;;;3.92;3.10;;;;;;;13.59;100.00;99864.94;10628358;27;20043;-61
2021/10/30 14:04:47;;;;;;;4.10;3.40;;;;;;;13.68;100.00;99853.63;10628390;27;20050;-61
2021/10/30 14:09:49;;;;;;;5.97;3.60;;;;;;;13.75;100.00;99859.19;10628225;27;20051;-61
2021/10/30 14:14:55;;;;;;;4.57;3.83;;;;;;;13.52;100.00;99872.53;10627941;27;20444;-60
2021/10/30 14:19:57;;;;;;;3.58;2.63;;;;;;;13.48;100.00;99870.28;10627700;27;20043;-60
2021/10/30 14:25:00;;;;;;;3.83;2.67;;;;;;;13.46;100.00;99883.56;10628096;27;20043;-62
2021/10/30 14:30:02;;;;;;;3.28;2.97;;;;;;;13.28;100.00;99882.44;10627240;27;20055;-62
2021/10/30 14:35:07;;;;;;;5.93;3.25;;;;;;;13.23;100.00;99882.84;10627192;27;20043;-62
2021/10/30 14:40:09;;;;;;;7.35;2.80;;;;;;;13.30;100.00;99897.13;10608301;27;20050;-62
2021/10/30 14:45:19;;;;;;;3.88;3.03;;;;;;;13.07;100.00;99888.50;10627005;27;20055;-62
2021/10/30 14:50:25;;;;;;;3.22;2.78;;;;;;;13.28;100.00;99896.44;10626755;27;20054;-60
2021/10/30 14:55:28;;;;;;;2.22;2.03;;;;;;;13.32;100.00;99907.56;10626456;27;20044;-60
2021/10/30 15:00:30;;;;;;;5.13;2.00;;;;;;;13.26;100.00;99906.22;10625750;27;20402;-62
2021/10/30 15:05:34;;;;;;;2.83;2.15;;;;;;;13.18;100.00;99904.25;10607791;27;20051;-62
2021/10/30 15:10:37;;;;;;;2.13;2.00;;;;;;;13.33;100.00;99898.69;10625731;27;20043;-61
2021/10/30 15:15:39;;;;;;;2.50;2.30;;;;;;;13.14;100.00;99894.09;10625594;27;20398;-62
2021/10/30 15:20:41;;;;;;;4.10;2.25;;;;;;;13.16;100.00;99894.78;10607086;27;20482;-61
2021/10/30 15:25:44;;;;;;;2.28;2.08;;;;;;;13.32;100.00;99904.91;10625174;27;20517;-62
2021/10/30 15:30:46;;;;;;;2.38;2.10;;;;;;;13.09;100.00;99902.34;10606931;27;20077;-62
2021/10/30 15:35:53;;;;;;;7.10;2.40;;;;;;;13.01;100.00;99915.28;10624866;27;20498;-61
2021/10/30 15:40:55;;;;;;;5.10;2.08;;;;;;;12.95;100.00;99911.38;10624664;27;20054;-62
2021/10/30 15:45:58;;;;;;;2.47;2.25;;;;;;;13.01;100.00;99902.13;10625432;27;20135;-61
2021/10/30 15:51:02;;;;;;;2.53;1.77;;;;;;;13.03;100.00;99910.75;10623689;27;20418;-61
2021/10/30 15:56:04;;;;;;;8.40;2.42;;;;;;;12.83;100.00;99918.47;10624589;27;20044;-60
2021/10/30 16:01:07;;;;;;;1.73;1.63;;;;;;;12.82;100.00;99921.19;10624380;28;20043;-62
2021/10/30 16:06:09;;;;;;;3.38;1.88;;;;;;;12.59;100.00;99926.53;10624462;28;20051;-60
2021/10/30 16:11:12;;;;;;;6.57;2.10;;;;;;;12.95;100.00;99937.66;10623844;28;20051;-62
2021/10/30 16:16:14;;;;;;;2.40;2.17;;;;;;;12.75;100.00;99941.88;10624372;28;20040;-60
2021/10/30 16:21:18;;;;;;;2.55;1.90;;;;;;;12.96;100.00;99943.72;10623614;28;20092;-61
2021/10/30 16:26:21;;;;;;;2.65;2.08;;;;;;;12.70;100.00;99953.72;10624124;28;20054;-62
2021/10/30 16:31:23;;;;;;;3.58;1.85;;;;;;;12.67;100.00;99943.44;10605270;28;20054;-61
2021/10/30 16:36:26;;;;;;;2.40;2.08;;;;;;;12.91;100.00;99954.63;10623538;28;20372;-61
2021/10/30 16:41:28;;;;;;;8.18;2.28;;;;;;;12.63;100.00;99958.63;10623530;28;20066;-60
2021/10/30 16:46:31;;;;;;;2.95;2.00;;;;;;;12.90;100.00;99963.47;10623440;28;20055;-60
2021/10/30 16:51:34;;;;;;;5.63;2.28;;;;;;;12.75;100.00;99972.56;10623262;28;20058;-60
2021/10/30 16:56:38;;;;;;;2.60;1.75;;;;;;;12.81;100.00;99983.41;10623348;28;20043;-60
2021/10/30 17:01:41;;;;;;;5.50;2.47;;;;;;;12.62;100.00;100002.44;10625982;27;20051;-62
2021/10/30 17:06:43;;;;;;;4.05;2.03;;;;;;;12.75;100.00;99986.53;10631028;27;20050;-61
2021/10/30 17:11:46;;;;;;;2.78;2.45;;;;;;;12.66;100.00;100003.03;10630343;27;20069;-60
2021/10/30 17:16:48;;;;;;;3.65;2.13;;;;;;;12.77;100.00;100020.56;10630809;27;20043;-60
2021/10/30 17:21:51;;;;;;;2.33;2.13;;;;;;;12.63;100.00;100032.16;10629665;27;20515;-61
2021/10/30 17:26:53;;;;;;;3.58;2.50;;;;;;;12.46;100.00;100025.59;10629988;27;20051;-60
2021/10/30 17:31:55;;;;;;;12.10;2.85;;;;;;;12.57;100.00;100035.25;10629787;27;20129;-63
2021/10/30 17:36:58;;;;;;;10.88;3.85;;;;;;;12.58;100.00;100042.19;10630262;27;20050;-63
2021/10/30 17:42:00;;;;;;;3.53;3.22;;;;;;;12.49;100.00;100051.63;10628945;27;20055;-62
2021/10/30 17:47:02;;;;;;;4.13;3.58;;;;;;;12.32;100.00;100058.13;10628879;27;20044;-62
2021/10/30 17:52:05;;;;;;;3.92;3.50;;;;;;;12.33;100.00;100057.19;10628869;27;20047;-63
2021/10/30 17:57:07;;;;;;;5.50;4.18;;;;;;;12.41;100.00;100065.31;10610700;27;20379;-62
2021/10/30 18:02:11;;;;;;;5.05;4.35;;;;;;;12.38;100.00;100069.97;10628365;27;20407;-62
2021/10/30 18:07:14;;;;;;;7.50;4.50;;;;;;;12.34;100.00;100073.75;10628556;27;20050;-62
2021/10/30 18:12:16;;;;;;;12.88;4.18;;;;;;;12.49;100.00;100074.38;10627266;27;20050;-64
2021/10/30 18:17:19;;;;;;;4.47;2.85;;;;;;;12.53;100.00;100078.47;10627677;27;20487;-61
2021/10/30 18:22:21;;;;;;;5.50;4.63;;;;;;;12.37;100.00;100099.78;10627928;27;20051;-62
2021/10/30 18:27:23;;;;;;;9.38;4.15;;;;;;;12.37;100.00;100090.16;10627888;27;20053;-62
2021/10/30 18:32:26;;;;;;;5.57;5.10;;;;;;;12.52;100.00;100116.16;10609161;27;20130;-62
2021/10/30 18:37:28;;;;;;;12.50;9.50;;;;;;;12.35;100.00;100118.28;10627542;27;20043;-61
2021/10/30 18:42:31;;;;;;;6.80;6.18;;;;;;;12.47;100.00;100123.56;10626676;27;20062;-63
2021/10/30 18:47:33;;;;;;;12.88;7.05;;;;;;;12.38;100.00;100125.91;10626824;27;20070;-62
2021/10/30 18:52:36;;;;;;;4.57;4.18;;;;;;;12.63;100.00;100124.06;10626673;27;20047;-62
2021/10/30 18:57:38;;;;;;;7.50;6.70;;;;;;;12.37;100.00;100132.16;10626839;27;20039;-62
2021/10/30 19:02:40;;;;;;;7.57;5.93;;;;;;;12.49;100.00;100134.78;10626503;27;20043;-61
2021/10/30 19:07:43;;;;;;;8.30;5.85;;;;;;;12.57;100.00;100142.91;10626100;27;20043;-62
2021/10/30 19:12:45;;;;;;;5.75;5.25;;;;;;;12.72;100.00;100146.97;10625640;27;20125;-62
2021/10/30 19:17:48;;;;;;;8.77;7.07;;;;;;;12.48;100.00;100162.00;10625771;27;20043;-62
2021/10/30 19:22:50;;;;;;;9.80;8.27;;;;;;;12.53;100.00;100165.94;10625128;27;20047;-62
2021/10/30 19:27:53;;;;;;;9.20;8.05;;;;;;;12.41;100.00;100166.88;10624779;27;20047;-62
2021/10/30 19:32:56;;;;;;;14.32;11.20;;;;;;;12.31;100.00;100181.63;10624751;27;20043;-62
2021/10/30 19:37:58;;;;;;;9.32;8.38;;;;;;;12.30;100.00;100188.66;10624802;27;20486;-62
2021/10/30 19:43:02;;;;;;;11.45;8.10;;;;;;;12.25;100.00;100210.03;10624828;27;20066;-63
2021/10/30 19:48:05;;;;;;;8.07;6.65;;;;;;;12.49;100.00;100211.78;10624519;27;20058;-62
2021/10/30 19:53:07;;;;;;;12.02;9.75;;;;;;;12.36;100.00;100224.97;10606114;27;20039;-61
2021/10/30 19:58:09;;;;;;;9.18;8.27;;;;;;;12.28;100.00;100232.56;10624986;27;20043;-62
2021/10/30 20:03:12;;;;;;;11.88;8.68;;;;;;;12.31;100.00;100234.97;10624287;28;20047;-63
2021/10/30 20:08:14;;;;;;;12.30;8.63;;;;;;;12.24;100.00;100245.06;10624233;28;20051;-62
2021/10/30 20:13:17;;;;;;;6.70;6.10;;;;;;;12.29;100.00;100249.13;10624233;28;20054;-61
2021/10/30 20:18:19;;;;;;;6.93;6.28;;;;;;;12.39;100.00;100255.38;10605847;28;20046;-61
2021/10/30 20:23:21;;;;;;;9.80;8.73;;;;;;;12.25;100.00;100262.50;10623800;28;20062;-61
2021/10/30 20:28:24;;;;;;;5.65;5.15;;;;;;;12.32;100.00;100270.75;10623814;28;20051;-61
2021/10/30 20:33:26;;;;;;;12.20;10.45;;;;;;;12.26;100.00;100285.16;10623973;28;20039;-62
2021/10/30 20:38:28;;;;;;;6.88;5.63;;;;;;;12.34;100.00;100291.63;10629931;27;20398;-62
2021/10/30 20:43:33;;;;;;;9.50;8.60;;;;;;;12.04;100.00;100300.78;10613058;27;20062;-62
2021/10/30 20:48:36;;;;;;;9.63;8.60;;;;;;;12.01;100.00;100307.09;10632059;27;20142;-62
2021/10/30 20:53:38;;;;;;;12.30;7.85;;;;;;;12.11;100.00;100325.63;10631315;27;20047;-62
2021/10/30 20:58:46;;;;;;;8.68;7.10;;;;;;;11.95;100.00;100328.50;10631024;27;20401;-61
2021/10/30 21:03:49;;;;;;;11.00;8.82;;;;;;;12.01;100.00;100350.84;10630934;27;20513;-61
2021/10/30 21:08:52;;;;;;;10.73;9.63;;;;;;;11.79;100.00;100339.22;10630582;27;20401;-61
2021/10/30 21:13:55;;;;;;;11.23;8.85;;;;;;;11.93;100.00;100346.13;10630695;27;20131;-61
2021/10/30 21:18:58;;;;;;;7.63;6.82;;;;;;;12.00;100.00;100352.66;10630357;27;20126;-61
2021/10/30 21:24:00;;;;;;;10.73;9.70;;;;;;;11.90;100.00;100364.69;10612147;27;20047;-62
2021/10/30 21:29:03;;;;;;;11.15;9.20;;;;;;;11.69;100.00;100367.03;10629878;27;20402;-62
2021/10/30 21:34:05;;;;;;;8.70;6.43;;;;;;;11.96;100.00;100382.66;10629840;27;20047;-61
2021/10/30 21:39:08;;;;;;;10.45;7.45;;;;;;;11.88;100.00;100385.78;10629196;27;20051;-61
2021/10/30 21:44:11;;;;;;;9.40;7.93;;;;;;;11.99;100.00;100381.63;10629423;27;20092;-62
2021/10/30 21:49:13;;;;;;;16.00;10.15;;;;;;;11.71;100.00;100386.94;10628078;27;20398;-60
2021/10/30 21:54:15;;;;;;;8.90;7.68;;;;;;;11.73;100.00;100393.88;10628923;27;20059;-61
2021/10/30 21:59:18;;;;;;;8.75;7.90;;;;;;;11.59;100.00;100390.41;10629321;27;20051;-61
2021/10/30 22:04:21;;;;;;;13.98;11.35;;;;;;;11.51;100.00;100395.31;10610458;27;20065;-61
2021/10/30 22:09:23;;;;;;;16.88;11.48;;;;;;;11.43;100.00;100408.97;10629039;27;20054;-60
2021/10/30 22:14:25;;;;;;;11.20;8.38;;;;;;;11.58;100.00;100414.09;10628237;27;20043;-62
2021/10/30 22:19:28;;;;;;;15.15;11.27;;;;;;;11.31;100.00;100423.72;10627893;27;20062;-62
2021/10/30 22:24:30;;;;;;;25.45;12.63;;;;;;;11.31;100.00;100425.50;10609566;27;20078;-62
2021/10/30 22:29:33;;;;;;;14.88;11.20;;;;;;;11.41;100.00;100433.59;10627603;27;20059;-61
2021/10/30 22:34:35;;;;;;;16.70;12.68;;;;;;;11.30;100.00;100444.81;10609521;27;20119;-61
2021/10/30 22:39:38;;;;;;;14.63;9.57;;;;;;;11.27;100.00;100456.31;10627391;27;20122;-62
2021/10/30 22:44:40;;;;;;;17.45;13.80;;;;;;;11.23;100.00;100461.84;10626629;27;20423;-61
2021/10/30 22:49:43;;;;;;;18.17;14.55;;;;;;;11.38;100.00;100466.09;10608206;27;20054;-61